Time;durP1;ratioP1;P1;durP2;ratioP2;P2;SDS_P1;SDS_P2;PMS_P1;PMS_P2;Temp;Humidity;BMP_temperature;BMP_pressure;BME280_temperature;BME280_humidity;BME280_pressure;Samples;Min_cycle;Max_cycle;Signal;HPM_P1;HPM_P2
2023/09/01 00:01:23;;;;;;;0.22;0.22;;;;;;;13.90;100.00;99739.94;5127303;28;20030;-60
2023/09/01 00:03:51;;;;;;;0.28;0.28;;;;;;;13.85;100.00;99744.47;5126989;28;20097;-60
2023/09/01 00:06:16;;;;;;;0.20;0.20;;;;;;;13.86;100.00;99735.72;5127239;28;20080;-59
2023/09/01 00:08:43;;;;;;;0.30;0.30;;;;;;;13.75;100.00;99730.88;5126859;28;20023;-61
2023/09/01 00:11:09;;;;;;;0.30;0.30;;;;;;;13.82;100.00;99734.97;5127155;28;20514;-60
2023/09/01 00:13:34;;;;;;;0.20;0.20;;;;;;;13.82;100.00;99747.16;5126717;28;20051;-60
2023/09/01 00:16:00;;;;;;;0.30;0.30;;;;;;;13.81;100.00;99743.72;5126738;28;20027;-60
2023/09/01 00:18:25;;;;;;;0.30;0.30;;;;;;;13.79;100.00;99747.25;5125776;28;20541;-60
2023/09/01 00:20:50;;;;;;;0.30;0.30;;;;;;;13.78;100.00;99749.03;5126656;28;20079;-59
2023/09/01 00:23:16;;;;;;;0.25;0.25;;;;;;;13.77;100.00;99746.47;5126468;27;20020;-61
2023/09/01 00:25:41;;;;;;;0.20;0.20;;;;;;;13.69;100.00;99736.28;5125385;28;20019;-60
2023/09/01 00:28:06;;;;;;;0.30;0.30;;;;;;;13.74;100.00;99734.34;5126258;28;20108;-59
2023/09/01 00:30:32;;;;;;;0.30;0.30;;;;;;;13.67;100.00;99730.25;5126600;28;20024;-59
2023/09/01 00:32:57;;;;;;;0.30;0.30;;;;;;;13.69;100.00;99736.28;5126654;28;20026;-60
2023/09/01 00:35:22;;;;;;;0.20;0.20;;;;;;;13.61;100.00;99732.16;5126617;28;20586;-62
2023/09/01 00:37:50;;;;;;;0.30;0.30;;;;;;;13.69;100.00;99731.91;5126350;28;20044;-62
2023/09/01 00:40:15;;;;;;;0.30;0.30;;;;;;;13.63;100.00;99738.19;5142104;27;20023;-63
2023/09/01 00:42:41;;;;;;;0.30;0.30;;;;;;;13.65;100.00;99739.88;5126379;28;20034;-62
2023/09/01 00:45:07;;;;;;;0.28;0.28;;;;;;;13.62;100.00;99743.44;5126364;28;20020;-61
2023/09/01 00:47:33;;;;;;;0.30;0.30;;;;;;;13.65;100.00;99737.28;5126239;28;20027;-62
2023/09/01 00:49:59;;;;;;;0.30;0.30;;;;;;;13.68;100.00;99737.16;5126532;28;20094;-61
2023/09/01 00:52:24;;;;;;;0.30;0.30;;;;;;;13.68;100.00;99731.94;5126284;28;20027;-60
2023/09/01 00:54:50;;;;;;;0.30;0.30;;;;;;;13.68;100.00;99732.81;5126716;28;20023;-60
2023/09/01 00:57:15;;;;;;;0.30;0.30;;;;;;;13.67;100.00;99736.34;5126226;28;20023;-61
2023/09/01 00:59:40;;;;;;;0.32;0.32;;;;;;;13.64;100.00;99736.44;5126047;28;20022;-60
2023/09/01 01:02:06;;;;;;;0.30;0.30;;;;;;;13.61;100.00;99739.97;5126355;28;20050;-60
2023/09/01 01:04:32;;;;;;;0.20;0.20;;;;;;;13.54;100.00;99730.66;5126094;28;20335;-61
2023/09/01 01:07:45;;;;;;;0.30;0.30;;;;;;;13.59;100.00;99741.81;5126284;28;20023;-60
2023/09/01 01:10:28;;;;;;;0.28;0.28;;;;;;;13.58;100.00;99724.44;5103070;28;20016;-59
2023/09/01 01:13:21;;;;;;;0.20;0.20;;;;;;;13.63;100.00;99739.94;5103255;28;20024;-60
2023/09/01 01:15:50;;;;;;;0.30;0.30;;;;;;;13.60;100.00;99730.47;5100425;28;20032;-60
2023/09/01 01:18:18;;;;;;;0.20;0.20;;;;;;;13.59;100.00;99733.97;5103325;28;20028;-60
2023/09/01 01:20:46;;;;;;;0.25;0.25;;;;;;;13.60;100.00;99732.19;5103104;28;20044;-60
2023/09/01 01:23:17;;;;;;;0.30;0.30;;;;;;;13.59;100.00;99727.91;5103140;28;20024;-59
2023/09/01 01:25:52;;;;;;;0.30;0.30;;;;;;;13.58;100.00;99724.44;5103095;28;20027;-60
2023/09/01 01:28:19;;;;;;;0.30;0.30;;;;;;;13.56;100.00;99725.41;5102820;28;20409;-61
2023/09/01 01:30:47;;;;;;;0.30;0.30;;;;;;;13.56;100.00;99726.22;5102581;28;20027;-59
2023/09/01 01:33:47;;;;;;;0.30;0.30;;;;;;;13.56;100.00;99713.19;5102894;28;20027;-60
2023/09/01 01:36:44;;;;;;;0.30;0.30;;;;;;;13.55;100.00;99716.72;5070702;28;20040;-59
2023/09/01 01:39:15;;;;;;;0.20;0.20;;;;;;;13.48;100.00;99709.97;5102319;28;20056;-59
2023/09/01 01:41:45;;;;;;;;;;;;;;;13.53;100.00;99712.44;5123151;28;20043;-59
2023/09/01 01:44:13;;;;;;;0.30;0.30;;;;;;;13.44;100.00;99714.41;5125390;28;19973;-61
2023/09/01 01:46:39;;;;;;;0.30;0.30;;;;;;;13.42;100.00;99707.56;5125353;28;20046;-58
2023/09/01 01:49:09;;;;;;;0.30;0.30;;;;;;;13.38;100.00;99712.00;5124279;28;20464;-61
2023/09/01 01:51:35;;;;;;;0.30;0.30;;;;;;;13.39;100.00;99713.69;5125451;28;20049;-61
2023/09/01 01:54:00;;;;;;;0.20;0.20;;;;;;;13.37;100.00;99713.75;5125285;28;20016;-60
2023/09/01 01:56:25;;;;;;;0.30;0.30;;;;;;;13.39;100.00;99713.69;5125353;28;20024;-61
2023/09/01 01:58:51;;;;;;;0.30;0.30;;;;;;;13.41;100.00;99713.66;5124842;28;20023;-61
2023/09/01 02:01:16;;;;;;;0.30;0.30;;;;;;;13.37;100.00;99707.69;5125349;28;20027;-61
2023/09/01 02:03:41;;;;;;;0.30;0.30;;;;;;;13.39;100.00;99713.69;5125092;28;20106;-61
2023/09/01 02:06:07;;;;;;;0.20;0.20;;;;;;;13.41;100.00;99711.91;5125842;28;20020;-61
2023/09/01 02:08:32;;;;;;;0.20;0.20;;;;;;;13.43;100.00;99719.69;5125460;28;20015;-61
2023/09/01 02:10:57;;;;;;;0.30;0.30;;;;;;;13.43;100.00;99712.72;5123871;28;20049;-61
2023/09/01 02:13:23;;;;;;;0.30;0.30;;;;;;;13.44;100.00;99706.59;5125361;28;20376;-60
2023/09/01 02:15:53;;;;;;;0.30;0.30;;;;;;;13.45;100.00;99705.69;5125221;28;20027;-60
2023/09/01 02:18:18;;;;;;;0.30;0.30;;;;;;;13.47;100.00;99711.72;5125079;28;20020;-60
2023/09/01 02:20:44;;;;;;;0.20;0.20;;;;;;;13.53;100.00;99722.88;5125083;28;20030;-60
2023/09/01 02:23:09;;;;;;;0.30;0.30;;;;;;;13.51;100.00;99715.94;5125235;28;20015;-60
2023/09/01 02:25:36;;;;;;;0.30;0.30;;;;;;;13.55;100.00;99716.72;5125274;28;20378;-60
2023/09/01 02:28:04;;;;;;;0.20;0.20;;;;;;;13.56;100.00;99720.19;5125022;28;20347;-60
2023/09/01 02:30:30;;;;;;;0.30;0.30;;;;;;;13.57;100.00;99717.53;5125187;28;20099;-60
2023/09/01 02:32:56;;;;;;;0.30;0.30;;;;;;;13.59;100.00;99720.06;5124970;28;20068;-61
2023/09/01 02:35:21;;;;;;;0.30;0.30;;;;;;;13.59;100.00;99714.84;5125262;28;20019;-61
2023/09/01 02:37:46;;;;;;;0.30;0.30;;;;;;;13.61;100.00;99719.13;5124573;28;20067;-61
2023/09/01 02:40:12;;;;;;;0.30;0.30;;;;;;;13.60;100.00;99716.56;5125136;28;20032;-61
2023/09/01 02:42:39;;;;;;;0.20;0.20;;;;;;;13.61;100.00;99713.91;5126935;28;20040;-61
2023/09/01 02:45:05;;;;;;;0.30;0.30;;;;;;;13.64;100.00;99723.41;5128769;28;20086;-59
2023/09/01 02:47:31;;;;;;;0.20;0.20;;;;;;;13.67;100.00;99719.81;5128729;28;20058;-60
2023/09/01 02:49:56;;;;;;;0.20;0.20;;;;;;;13.68;100.00;99718.91;5128883;28;20073;-60
2023/09/01 02:52:21;;;;;;;0.30;0.30;;;;;;;13.71;100.00;99724.03;5128793;28;20028;-60
2023/09/01 02:54:46;;;;;;;0.30;0.30;;;;;;;13.73;100.00;99720.50;5127141;28;20055;-61
2023/09/01 02:57:12;;;;;;;0.30;0.30;;;;;;;13.73;100.00;99712.66;5128596;28;20055;-60
2023/09/01 02:59:37;;;;;;;0.20;0.20;;;;;;;13.79;100.00;99726.38;5128503;28;20024;-60
2023/09/01 03:02:03;;;;;;;0.30;0.30;;;;;;;13.78;100.00;99715.13;5128607;27;20111;-60
2023/09/01 03:04:30;;;;;;;0.22;0.22;;;;;;;13.81;100.00;99719.38;5128210;28;20028;-60
2023/09/01 03:06:56;;;;;;;0.30;0.30;;;;;;;13.81;100.00;99717.63;5128398;28;20027;-60
2023/09/01 03:09:22;;;;;;;0.30;0.30;;;;;;;13.81;100.00;99712.41;5126902;28;20016;-60
2023/09/01 03:11:48;;;;;;;0.30;0.30;;;;;;;13.86;100.00;99718.34;5128288;28;20031;-61
2023/09/01 03:14:13;;;;;;;0.28;0.28;;;;;;;13.86;100.00;99714.84;5128118;28;20031;-60
2023/09/01 03:16:39;;;;;;;0.30;0.30;;;;;;;13.90;100.00;99723.44;5128398;28;20483;-59
2023/09/01 03:19:04;;;;;;;0.30;0.30;;;;;;;13.90;100.00;99718.22;5128149;28;20019;-61
2023/09/01 03:21:30;;;;;;;0.30;0.30;;;;;;;13.92;100.00;99721.63;5127950;28;20023;-60
2023/09/01 03:23:59;;;;;;;0.20;0.20;;;;;;;13.92;100.00;99716.41;5127962;28;20360;-61
2023/09/01 03:26:25;;;;;;;0.30;0.30;;;;;;;13.91;100.00;99719.91;5127962;28;20020;-60
2023/09/01 03:28:50;;;;;;;0.30;0.30;;;;;;;13.91;100.00;99712.97;5127679;28;20102;-60
2023/09/01 03:31:16;;;;;;;0.30;0.30;;;;;;;13.91;100.00;99709.47;5127643;28;20030;-61
2023/09/01 03:33:42;;;;;;;0.30;0.30;;;;;;;13.91;100.00;99715.56;5127854;28;20432;-60
2023/09/01 03:36:08;;;;;;;0.30;0.30;;;;;;;13.90;100.00;99708.63;5127667;28;20024;-59
2023/09/01 03:38:34;;;;;;;0.20;0.20;;;;;;;13.86;100.00;99707.91;5127107;28;20059;-61
2023/09/01 03:41:04;;;;;;;0.30;0.30;;;;;;;13.92;100.00;99713.78;5127437;28;20137;-60
2023/09/01 03:43:30;;;;;;;0.20;0.20;;;;;;;13.91;100.00;99715.56;5127159;28;20034;-60
2023/09/01 03:45:55;;;;;;;0.20;0.20;;;;;;;13.93;100.00;99712.91;5127542;28;20019;-61
2023/09/01 03:48:20;;;;;;;0.20;0.20;;;;;;;13.95;100.00;99717.16;5127522;28;20051;-60
2023/09/01 03:51:06;;;;;;;0.30;0.30;;;;;;;13.95;100.00;99718.91;5127547;28;20084;-61
2023/09/01 03:53:32;;;;;;;0.30;0.30;;;;;;;13.99;100.00;99713.53;5127115;28;20171;-60
2023/09/01 03:56:00;;;;;;;0.30;0.30;;;;;;;14.00;100.00;99717.00;5127240;28;20023;-61
2023/09/01 03:58:26;;;;;;;0.30;0.30;;;;;;;14.03;100.00;99710.81;5125425;28;20032;-61
2023/09/01 04:00:51;;;;;;;0.20;0.20;;;;;;;14.02;100.00;99709.13;5127534;28;20033;-61
2023/09/01 04:03:17;;;;;;;0.30;0.30;;;;;;;14.06;100.00;99718.53;5127237;28;20020;-61
2023/09/01 04:05:42;;;;;;;0.30;0.30;;;;;;;14.05;100.00;99717.69;5127310;28;20271;-59
2023/09/01 04:08:07;;;;;;;0.20;0.20;;;;;;;13.99;100.00;99705.69;5126969;28;20027;-60
2023/09/01 04:10:33;;;;;;;0.20;0.20;;;;;;;14.07;100.00;99712.44;5127099;28;20371;-61
2023/09/01 04:12:58;;;;;;;0.30;0.30;;;;;;;14.08;100.00;99716.72;5126993;28;20028;-60
2023/09/01 04:15:23;;;;;;;0.22;0.22;;;;;;;14.05;100.00;99711.63;5126667;28;20493;-61
2023/09/01 04:17:49;;;;;;;0.30;0.30;;;;;;;14.07;100.00;99715.03;5126826;28;20049;-61
2023/09/01 04:20:14;;;;;;;0.30;0.30;;;;;;;14.09;100.00;99713.25;5126824;28;20099;-60
2023/09/01 04:22:39;;;;;;;0.30;0.30;;;;;;;14.09;100.00;99716.69;5126727;28;20043;-59
2023/09/01 04:25:05;;;;;;;0.30;0.30;;;;;;;14.07;100.00;99710.69;5126550;28;20019;-59
2023/09/01 04:27:30;;;;;;;0.25;0.25;;;;;;;14.07;100.00;99715.03;5126745;28;20034;-59
2023/09/01 04:29:56;;;;;;;0.30;0.30;;;;;;;14.08;100.00;99716.72;5126947;28;20099;-60
2023/09/01 04:32:21;;;;;;;0.30;0.30;;;;;;;14.05;100.00;99717.69;5125421;28;20019;-60
2023/09/01 04:34:46;;;;;;;0.20;0.20;;;;;;;14.10;100.00;99726.25;5126800;28;20027;-59
2023/09/01 04:37:12;;;;;;;0.30;0.30;;;;;;;14.10;100.00;99721.00;5126756;27;20379;-60
2023/09/01 04:39:37;;;;;;;0.30;0.30;;;;;;;14.09;100.00;99715.84;5126629;28;20066;-60
2023/09/01 04:42:03;;;;;;;0.20;0.20;;;;;;;14.09;100.00;99708.84;5126707;28;20053;-59
2023/09/01 04:44:28;;;;;;;0.20;0.20;;;;;;;14.16;100.00;99717.34;5126470;28;20023;-60
2023/09/01 04:46:53;;;;;;;0.30;0.30;;;;;;;14.12;100.00;99702.69;5126639;28;20027;-60
2023/09/01 04:49:19;;;;;;;0.30;0.30;;;;;;;14.21;100.00;99717.16;5126577;28;20049;-60
2023/09/01 04:51:44;;;;;;;0.30;0.30;;;;;;;14.20;100.00;99715.47;5126651;28;20065;-59
2023/09/01 04:54:09;;;;;;;0.20;0.20;;;;;;;14.22;100.00;99719.72;5126579;28;20072;-59
2023/09/01 04:56:35;;;;;;;0.20;0.20;;;;;;;14.23;100.00;99717.97;5126373;28;20482;-60
2023/09/01 04:59:00;;;;;;;0.30;0.30;;;;;;;14.24;100.00;99712.69;5126160;28;20028;-59
2023/09/01 05:01:25;;;;;;;0.20;0.20;;;;;;;14.25;100.00;99708.31;5125027;28;20382;-59
2023/09/01 05:03:51;;;;;;;0.30;0.30;;;;;;;14.28;100.00;99720.44;5126138;28;20016;-61
2023/09/01 05:06:16;;;;;;;0.30;0.30;;;;;;;14.29;100.00;99720.38;5125884;28;20023;-59
2023/09/01 05:08:41;;;;;;;0.20;0.20;;;;;;;14.29;100.00;99725.59;5126138;28;20022;-60
2023/09/01 05:11:07;;;;;;;0.30;0.30;;;;;;;14.30;100.00;99726.44;5126289;28;20056;-60
2023/09/01 05:13:33;;;;;;;0.20;0.20;;;;;;;14.36;100.00;99734.06;5126042;28;20019;-60
2023/09/01 05:15:58;;;;;;;0.20;0.20;;;;;;;14.37;100.00;99734.00;5126245;28;20023;-60
2023/09/01 05:18:24;;;;;;;0.30;0.30;;;;;;;14.37;100.00;99733.16;5126029;28;20026;-60
2023/09/01 05:20:49;;;;;;;0.30;0.30;;;;;;;14.39;100.00;99733.97;5126064;28;20031;-59
2023/09/01 05:23:14;;;;;;;0.20;0.20;;;;;;;14.38;100.00;99730.50;5125796;28;20051;-60
2023/09/01 05:25:40;;;;;;;0.20;0.20;;;;;;;14.41;100.00;99736.53;5125912;28;20084;-61
2023/09/01 05:28:05;;;;;;;0.30;0.30;;;;;;;14.41;100.00;99736.53;5125491;28;20075;-61
2023/09/01 05:30:30;;;;;;;0.20;0.20;;;;;;;14.43;100.00;99735.53;5125449;28;20016;-61
2023/09/01 05:32:56;;;;;;;0.30;0.30;;;;;;;14.44;100.00;99733.81;5125797;28;20589;-62
2023/09/01 05:35:21;;;;;;;0.20;0.20;;;;;;;14.44;100.00;99732.03;5126004;28;20019;-61
2023/09/01 05:37:47;;;;;;;0.20;0.20;;;;;;;14.47;100.00;99728.47;5125644;28;20104;-59
2023/09/01 05:40:12;;;;;;;0.30;0.30;;;;;;;14.48;100.00;99731.03;5125947;28;20110;-61
2023/09/01 05:42:37;;;;;;;0.30;0.30;;;;;;;14.52;100.00;99736.97;5125487;28;20020;-60
2023/09/01 05:45:03;;;;;;;0.30;0.30;;;;;;;14.46;100.00;99724.13;5124861;28;20024;-59
2023/09/01 05:47:28;;;;;;;0.20;0.20;;;;;;;14.55;100.00;99734.28;5125712;28;20019;-60
2023/09/01 05:49:54;;;;;;;0.30;0.30;;;;;;;14.56;100.00;99729.88;5125853;28;20073;-61
2023/09/01 05:52:19;;;;;;;0.20;0.20;;;;;;;14.61;100.00;99735.81;5125545;28;20016;-60
2023/09/01 05:54:44;;;;;;;0.20;0.20;;;;;;;14.61;100.00;99741.88;5124481;28;20019;-60
2023/09/01 05:57:10;;;;;;;0.20;0.20;;;;;;;14.64;100.00;99740.91;5125627;28;20057;-60
2023/09/01 05:59:35;;;;;;;0.20;0.20;;;;;;;14.69;100.00;99744.22;5125380;28;20031;-60
2023/09/01 06:02:00;;;;;;;0.30;0.30;;;;;;;14.72;100.00;99743.25;5125905;28;20055;-62
2023/09/01 06:04:26;;;;;;;0.30;0.30;;;;;;;14.79;100.00;99744.75;5125564;28;20101;-61
2023/09/01 06:06:51;;;;;;;0.20;0.20;;;;;;;14.79;100.00;99744.75;5125735;28;20489;-60
2023/09/01 06:09:17;;;;;;;0.20;0.20;;;;;;;14.85;100.00;99752.38;5125738;28;20046;-60
2023/09/01 06:11:42;;;;;;;0.20;0.20;;;;;;;14.87;100.00;99750.53;5125549;28;20055;-62
2023/09/01 06:14:07;;;;;;;0.20;0.20;;;;;;;14.91;100.00;99756.53;5125334;28;20467;-60
2023/09/01 06:16:33;;;;;;;0.20;0.20;;;;;;;14.93;100.00;99759.94;5127875;28;20027;-61
2023/09/01 06:19:03;;;;;;;0.30;0.30;;;;;;;14.96;100.00;99756.34;5129594;28;20028;-60
2023/09/01 06:21:28;;;;;;;0.20;0.20;;;;;;;15.00;100.00;99763.16;5129674;28;20020;-61
2023/09/01 06:23:54;;;;;;;0.20;0.20;;;;;;;15.07;100.00;99761.16;5129432;28;20030;-61
2023/09/01 06:26:19;;;;;;;0.20;0.20;;;;;;;15.15;100.00;99766.09;5129512;28;20030;-61
2023/09/01 06:28:46;;;;;;;0.20;0.20;;;;;;;15.27;100.00;99765.63;5127819;28;20027;-61
2023/09/01 06:31:13;;;;;;;0.20;0.20;;;;;;;15.42;100.00;99763.34;5129396;28;20100;-61
2023/09/01 06:33:43;;;;;;;0.20;0.20;;;;;;;15.54;100.00;99757.66;5129202;27;20083;-61
2023/09/01 06:36:13;;;;;;;0.20;0.20;;;;;;;15.69;100.00;99761.41;5129311;28;20026;-62
2023/09/01 06:38:41;;;;;;;0.30;0.30;;;;;;;15.88;100.00;99765.03;5128952;28;20488;-61
2023/09/01 06:41:07;;;;;;;0.20;0.20;;;;;;;16.12;100.00;99767.59;5129158;28;20027;-61
2023/09/01 06:43:32;;;;;;;0.20;0.20;;;;;;;16.39;100.00;99768.16;5128822;28;20049;-60
2023/09/01 06:45:58;;;;;;;0.20;0.20;;;;;;;16.79;100.00;99762.13;5129207;28;20550;-59
2023/09/01 06:48:24;;;;;;;0.20;0.20;;;;;;;17.26;100.00;99763.50;5128976;28;20028;-60
2023/09/01 06:50:49;;;;;;;0.20;0.20;;;;;;;17.66;100.00;99762.50;5128960;28;20020;-60
2023/09/01 06:53:15;;;;;;;0.20;0.20;;;;;;;18.09;100.00;99770.03;5128982;28;20028;-59
2023/09/01 06:55:40;;;;;;;0.20;0.20;;;;;;;18.65;100.00;99774.28;5128783;28;20028;-60
2023/09/01 06:58:05;;;;;;;0.20;0.20;;;;;;;19.11;100.00;99754.34;5128874;28;20131;-61
2023/09/01 07:00:31;;;;;;;0.20;0.20;;;;;;;19.92;100.00;99778.84;5128610;28;20020;-61
2023/09/01 07:02:58;;;;;;;0.20;0.20;;;;;;;20.60;100.00;99781.91;5144505;27;20543;-62
2023/09/01 07:05:23;;;;;;;0.20;0.20;;;;;;;21.24;100.00;99788.59;5128663;28;20059;-62
2023/09/01 07:07:50;;;;;;;0.10;0.10;;;;;;;21.85;100.00;99786.53;5128720;28;20012;-62
2023/09/01 07:10:16;;;;;;;0.10;0.10;;;;;;;22.16;100.00;99785.34;5128727;28;20041;-61
2023/09/01 07:12:41;;;;;;;0.10;0.10;;;;;;;22.12;100.00;99783.00;5128476;28;20028;-61
2023/09/01 07:15:08;;;;;;;0.10;0.10;;;;;;;21.86;100.00;99783.78;5128308;28;20031;-61
2023/09/01 07:17:33;;;;;;;0.10;0.10;;;;;;;21.62;100.00;99792.34;5128612;28;20019;-61
2023/09/01 07:19:58;;;;;;;0.10;0.10;;;;;;;21.40;100.00;99787.59;5128306;28;20015;-61
2023/09/01 07:22:24;;;;;;;0.10;0.10;;;;;;;21.24;100.00;99799.16;5128278;28;20083;-61
2023/09/01 07:24:49;;;;;;;0.10;0.10;;;;;;;21.48;100.00;99793.25;5128317;28;20019;-61
2023/09/01 07:27:14;;;;;;;0.10;0.10;;;;;;;22.06;100.00;99783.41;5127379;27;20019;-61
2023/09/01 07:29:40;;;;;;;0.10;0.10;;;;;;;22.56;100.00;99783.56;5127867;28;20107;-62
2023/09/01 07:32:05;;;;;;;0.10;0.10;;;;;;;23.15;100.00;99789.22;5128242;28;20111;-60
2023/09/01 07:34:30;;;;;;;0.10;0.10;;;;;;;24.02;100.00;99782.09;5128053;28;20027;-60
2023/09/01 07:36:56;;;;;;;0.10;0.10;;;;;;;24.80;100.00;99788.63;5128150;28;20027;-60
2023/09/01 07:39:21;;;;;;;0.10;0.10;;;;;;;25.45;100.00;99785.31;5127733;28;20047;-61
2023/09/01 07:41:47;;;;;;;0.10;0.10;;;;;;;26.01;100.00;99779.94;5127956;28;20076;-61
2023/09/01 07:44:16;;;;;;;0.10;0.10;;;;;;;26.61;100.00;99792.66;5126346;28;20031;-61
2023/09/01 07:46:44;;;;;;;0.10;0.10;;;;;;;27.15;100.00;99783.59;5127872;28;20027;-61
2023/09/01 07:49:10;;;;;;;0.10;0.10;;;;;;;27.52;100.00;99785.63;5127841;27;20086;-60
2023/09/01 07:51:38;;;;;;;0.10;0.10;;;;;;;27.94;100.00;99781.03;5126587;28;20023;-60
2023/09/01 07:54:03;;;;;;;0.10;0.10;;;;;;;28.29;100.00;99778.72;5126404;28;20573;-61
2023/09/01 07:56:29;;;;;;;0.10;0.10;;;;;;;28.64;100.00;99784.41;5127607;28;20083;-61
2023/09/01 07:58:54;;;;;;;0.10;0.10;;;;;;;29.04;100.00;99787.75;5127054;28;20114;-60
2023/09/01 08:01:19;;;;;;;0.10;0.10;;;;;;;29.40;100.00;99792.31;5127684;28;20037;-60
2023/09/01 08:03:45;;;;;;;0.10;0.10;;;;;;;29.54;100.00;99788.25;5126104;28;20035;-61
2023/09/01 08:06:10;;;;;;;2.70;0.50;;;;;;;29.52;99.34;99790.28;5126377;28;20490;-60
2023/09/01 08:08:36;;;;;;;1.33;1.00;;;;;;;29.42;96.67;99791.19;5127447;27;20022;-60
2023/09/01 08:11:01;;;;;;;1.60;1.02;;;;;;;29.57;98.52;99790.63;5127472;28;20028;-60
2023/09/01 08:13:27;;;;;;;2.20;1.00;;;;;;;29.85;99.84;99789.75;5126128;28;20105;-62
2023/09/01 08:15:53;;;;;;;1.15;0.65;;;;;;;30.10;98.47;99784.59;5127219;28;20467;-60
2023/09/01 08:18:18;;;;;;;0.82;0.63;;;;;;;30.12;95.30;99791.47;5127358;28;20066;-59
2023/09/01 08:20:44;;;;;;;0.77;0.73;;;;;;;30.23;95.81;99795.75;5127101;28;20023;-60
2023/09/01 08:23:10;;;;;;;1.00;0.90;;;;;;;30.43;94.93;99790.19;5127030;28;20019;-60
2023/09/01 08:25:36;;;;;;;0.77;0.77;;;;;;;30.14;91.40;99800.19;5127143;28;20031;-60
2023/09/01 08:28:07;;;;;;;1.50;0.93;;;;;;;30.35;90.46;99796.34;5126784;28;20027;-60
2023/09/01 08:30:32;;;;;;;1.43;1.03;;;;;;;30.45;86.74;99800.75;5125683;28;20016;-60
2023/09/01 08:32:57;;;;;;;0.90;0.70;;;;;;;30.89;87.88;99806.00;5125873;28;20739;-60
2023/09/01 08:35:23;;;;;;;1.45;0.95;;;;;;;31.02;85.77;99807.41;5126880;28;20091;-60
2023/09/01 08:37:48;;;;;;;1.35;1.00;;;;;;;31.25;84.12;99806.78;5126725;28;20048;-60
2023/09/01 08:40:13;;;;;;;1.48;0.70;;;;;;;31.39;78.88;99813.41;5125972;28;20488;-60
2023/09/01 08:42:47;;;;;;;1.83;1.02;;;;;;;31.78;76.31;99811.91;5126792;28;20020;-60
2023/09/01 08:45:17;;;;;;;1.00;0.82;;;;;;;31.84;69.66;99813.94;5126667;28;20019;-61
2023/09/01 08:47:45;;;;;;;1.08;0.75;;;;;;;31.89;76.40;99819.63;5126630;28;20051;-60
2023/09/01 08:50:12;;;;;;;1.98;1.05;;;;;;;32.01;77.54;99813.97;5126608;28;20049;-60
2023/09/01 08:52:38;;;;;;;1.45;0.88;;;;;;;32.26;74.77;99811.25;5126619;28;20054;-60
2023/09/01 08:55:05;;;;;;;0.57;0.57;;;;;;;32.34;72.42;99816.63;5126682;28;20092;-59
2023/09/01 08:57:30;;;;;;;0.93;0.82;;;;;;;32.71;73.53;99819.75;5126310;28;20051;-60
2023/09/01 08:59:56;;;;;;;2.45;0.95;;;;;;;32.66;70.66;99814.03;5126234;28;20038;-61
2023/09/01 09:02:21;;;;;;;0.80;0.77;;;;;;;32.90;71.13;99812.25;5126547;28;20025;-60
2023/09/01 09:04:47;;;;;;;1.15;0.80;;;;;;;32.78;64.09;99809.13;5126278;27;20031;-60
2023/09/01 09:07:18;;;;;;;1.30;0.95;;;;;;;32.63;62.79;99809.84;5126336;28;20023;-61
2023/09/01 09:09:56;;;;;;;1.10;0.65;;;;;;;32.85;65.86;99820.00;5126101;28;20119;-60
2023/09/01 09:12:23;;;;;;;0.90;0.70;;;;;;;33.17;66.70;99820.06;5126102;28;20027;-60
2023/09/01 09:14:52;;;;;;;1.08;0.68;;;;;;;33.53;66.66;99824.91;5125751;28;20031;-60
2023/09/01 09:17:19;;;;;;;0.90;0.70;;;;;;;33.74;67.48;99820.75;5126353;28;20027;-60
2023/09/01 09:19:56;;;;;;;1.25;0.80;;;;;;;33.46;58.77;99823.94;5126041;28;20016;-61
2023/09/01 09:22:22;;;;;;;1.38;0.85;;;;;;;33.59;60.68;99816.13;5126150;28;20019;-60
2023/09/01 09:24:48;;;;;;;1.33;0.65;;;;;;;33.86;60.52;99819.31;5126156;28;20093;-60
2023/09/01 09:27:15;;;;;;;1.40;0.80;;;;;;;33.94;56.63;99820.22;5126179;28;20031;-60
2023/09/01 09:29:41;;;;;;;0.95;0.80;;;;;;;33.98;61.90;99818.88;5124285;28;20012;-61
2023/09/01 09:32:16;;;;;;;2.58;1.02;;;;;;;34.15;63.58;99810.63;5125946;28;20027;-61
2023/09/01 09:34:41;;;;;;;0.98;0.82;;;;;;;34.07;64.20;99816.94;5125736;28;20028;-60
2023/09/01 09:37:16;;;;;;;0.80;0.77;;;;;;;34.12;63.99;99815.34;5125982;28;20046;-60
2023/09/01 09:39:43;;;;;;;0.90;0.68;;;;;;;34.18;60.80;99815.66;5125593;28;20043;-59
2023/09/01 09:42:08;;;;;;;0.75;0.60;;;;;;;34.03;61.32;99821.84;5124379;28;20016;-59
2023/09/01 09:44:34;;;;;;;0.70;0.60;;;;;;;34.05;63.65;99827.88;5125630;28;20085;-60
2023/09/01 09:47:01;;;;;;;2.50;1.20;;;;;;;33.76;62.33;99824.06;5125707;28;20032;-59
2023/09/01 09:49:31;;;;;;;0.65;0.65;;;;;;;33.43;64.38;99826.97;5125790;28;20016;-60
2023/09/01 09:52:00;;;;;;;0.80;0.70;;;;;;;33.47;65.61;99834.50;5125525;28;20027;-59
2023/09/01 09:54:29;;;;;;;1.17;1.00;;;;;;;33.50;57.08;99834.16;5125610;28;20027;-59
2023/09/01 09:56:57;;;;;;;2.03;1.20;;;;;;;33.79;63.60;99828.28;5125739;28;20030;-60
2023/09/01 09:59:48;;;;;;;0.73;0.65;;;;;;;34.10;59.73;99840.78;5125274;28;20031;-60
2023/09/01 10:02:27;;;;;;;0.47;0.47;;;;;;;34.33;58.08;99824.59;5125668;28;20093;-60
2023/09/01 10:04:53;;;;;;;1.45;0.82;;;;;;;34.38;58.87;99834.81;5125598;28;20028;-59
2023/09/01 10:07:21;;;;;;;0.85;0.60;;;;;;;34.52;60.37;99851.19;5125981;28;20103;-59
2023/09/01 10:09:47;;;;;;;0.95;0.73;;;;;;;34.67;60.76;99848.50;5125447;28;20039;-60
2023/09/01 10:12:13;;;;;;;0.70;0.60;;;;;;;34.51;59.58;99847.66;5125615;28;20490;-61
2023/09/01 10:14:39;;;;;;;1.77;0.85;;;;;;;34.40;54.76;99848.94;5125198;28;20028;-60
2023/09/01 10:17:06;;;;;;;0.73;0.50;;;;;;;34.31;59.18;99858.13;5125502;28;20114;-60
2023/09/01 10:19:31;;;;;;;0.68;0.50;;;;;;;34.21;59.75;99851.16;5125314;28;20045;-60
2023/09/01 10:21:57;;;;;;;1.00;0.88;;;;;;;34.17;59.73;99847.16;5125444;28;20024;-61
2023/09/01 10:24:22;;;;;;;1.90;1.02;;;;;;;34.46;60.16;99853.59;5125290;28;20045;-61
2023/09/01 10:27:08;;;;;;;0.68;0.55;;;;;;;34.64;58.21;99856.94;5125324;28;20020;-60
2023/09/01 10:29:34;;;;;;;0.65;0.60;;;;;;;34.37;58.01;99860.09;5125321;28;20027;-61
2023/09/01 10:32:18;;;;;;;0.77;0.75;;;;;;;33.51;48.91;99870.81;5125464;28;20020;-61
2023/09/01 10:34:54;;;;;;;2.15;1.35;;;;;;;33.56;57.93;99872.97;5125170;28;20023;-60
2023/09/01 10:37:27;;;;;;;0.40;0.40;;;;;;;33.70;60.27;99865.16;5125091;28;20077;-60
2023/09/01 10:39:54;;;;;;;1.50;0.90;;;;;;;33.91;60.49;99863.66;5125049;28;20035;-61
2023/09/01 10:42:39;;;;;;;1.48;1.00;;;;;;;33.98;57.21;99864.63;5125202;28;20038;-60
2023/09/01 10:45:06;;;;;;;1.15;0.90;;;;;;;34.12;58.45;99871.06;5123693;28;20260;-61
2023/09/01 10:47:31;;;;;;;3.00;1.00;;;;;;;33.80;51.31;99867.63;5125250;28;20027;-60
2023/09/01 10:49:58;;;;;;;2.70;1.20;;;;;;;33.54;56.85;99874.16;5123772;28;20114;-60
2023/09/01 10:52:23;;;;;;;1.33;0.70;;;;;;;33.46;59.24;99866.97;5125087;28;20309;-61
2023/09/01 10:55:15;;;;;;;1.05;0.75;;;;;;;33.36;55.15;99865.34;5125261;28;20016;-60
2023/09/01 10:57:47;;;;;;;0.88;0.73;;;;;;;33.39;57.31;99861.44;5123792;28;20092;-60
2023/09/01 11:00:30;;;;;;;0.70;0.60;;;;;;;33.28;55.72;99859.19;5124926;28;20026;-60
2023/09/01 11:03:34;;;;;;;1.27;0.60;;;;;;;32.78;48.36;99862.88;5126004;28;20023;-60
2023/09/01 11:06:05;;;;;;;0.75;0.70;;;;;;;32.75;55.24;99863.22;5127333;28;20020;-60
2023/09/01 11:08:31;;;;;;;;;;;;;;;32.70;57.87;99869.09;5128812;28;20031;-60
2023/09/01 11:11:07;;;;;;;2.78;0.90;;;;;;;32.68;53.52;99864.91;5128540;27;19907;-60
2023/09/01 11:13:32;;;;;;;1.25;1.00;;;;;;;32.70;53.97;99863.72;5128264;28;20387;-60
2023/09/01 11:16:07;;;;;;;0.98;0.77;;;;;;;32.51;44.58;99860.41;5127996;28;20023;-60
2023/09/01 11:18:33;;;;;;;1.15;0.93;;;;;;;32.39;51.73;99857.22;5128002;28;20019;-60
2023/09/01 11:21:00;;;;;;;1.08;0.90;;;;;;;32.53;52.37;99862.94;5128066;28;20095;-60
2023/09/01 11:23:29;;;;;;;0.70;0.60;;;;;;;32.85;54.67;99854.94;5127972;28;20053;-59
2023/09/01 11:25:58;;;;;;;0.73;0.60;;;;;;;32.10;53.78;99858.59;5128101;28;20020;-61
2023/09/01 11:28:27;;;;;;;0.85;0.80;;;;;;;30.76;56.57;99861.84;5127787;28;20099;-60
2023/09/01 11:30:57;;;;;;;0.95;0.90;;;;;;;29.13;61.00;99867.03;5127536;28;20087;-60